Aeroporto :
LOGIN :

Iscrizione | Disclaimer

   EN    FR    IT 

 










Sommario :    VFR   VFR Marginale   IFR   IFR Intensivo   IFR Molto Intensivo
Visibilità : 
Base nubi : 
>= 8 km
>= 3000ft
5 / 8 km
1000 / 3000 ft
1500m / 5 km
500 / 1000 ft
800 / 1500m
200 / 500 ft
< 800m
< 200 ft
Simboli :   Temporali  Nebbia  Neve Forte  Precipitazioni Forti  Vento > 20 kt
SIGMETs :   Varie  Temporali  Ghiacco  Turbolenza  Onda orograficha  Ceneri Vulcaniche






- Altitudine del aeroporto : 348 ft
- Codice IATA : TSR


LRTR - Timisoara

ULTIMO METAR :
  • 232030Z 11007KT CAVOK 09/04 Q1007

METARs OBSOLETI :
  • 232000Z 10007KT CAVOK 10/04 Q1007
  • 231930Z 11008KT CAVOK 10/04 Q1007
  • 231900Z 11008KT CAVOK 11/03 Q1007
  • 231830Z 14009KT CAVOK 13/02 Q1007
  • 231800Z 14010KT CAVOK 13/02 Q1007
  • 231730Z 15010KT CAVOK 13/02 Q1007
  • 231700Z 15010KT CAVOK 14/02 Q1007
  • 231630Z 15007KT CAVOK 14/03 Q1007
  • 231600Z 16009KT CAVOK 14/03 Q1007
  • 231530Z 17010KT CAVOK 15/03 Q1007

TAF TAF LRTR
Valido dal 23 a 18 ore il 24 a 18 ore UTC


231700Z 2318/2418 16015KT CAVOK
TEMPO 2408/2413 17018G30KT
PROB40
TEMPO 2412/2416 5000 -RA



MetMap, La meteo Aeronautica in un colpo d'occhio ! - Copyright ORBIFLY Dicembre 2007 - Disclaimer

ORBIFLY MET'MAP TEAM :

Programmazione e sviluppo : Alexandra Zaïnal
Concezione : Baudouin d'Aumeries
Supporto tecnico e logistico : Manuel Goepfert
Aiuto : Marc-Olivier Méhu
Aiuto per la traduzione : Arnaldo La Scala




FONTI E CREDITI :

   NOAA